Airfield :
LOGIN :

Register | Disclaimer

   EN    FR    IT 

 










Legend :    VFR   Marginal VFR   IFR   Intensive IFR   Very Intensive IFR
Visi :
Ceiling :
>= 8 km
>= 3000ft
5 to 8 km
1000 to 3000 ft
1500m to 5 km
500 to 1000 ft
800 to 1500m
200 to 500 ft
< 800m
< 200 ft
Symbols :   Thunderstorms  Fog  Heavy snow  Heavy precipitations  Wind > 20 kt
SIGMETs :     Misc.  Thunderstorms  Icing  Turbulence  Mountain Waves  Volcanic Ashes







- Airport Elevation : 939 ft


LKKB - Kbely Air Base

CURRENT METAR :
  • 200800Z 06004KT 360V150 0300 R24/0700D FG VV002 09/09 Q1017 NOSIG

EXPIRED METARs :
  • 200700Z 10003KT 060V150 0400 R24/0700D FG OVC002 09/09 Q1017 NOSIG
  • 200600Z 13004KT 060V150 0400 R24/0700D FG OVC002 09/09 Q1017 NOSIG

TAF TAF LKKB
Valid from the 20 at 06:00 until the 21 at 06:00 UTC


200500Z 2006/2106 VRB02KT 1200 BR OVC002
TEMPO 2006/2008 0400 FG VV001
BECMG 2010/2012 4000 BR SCT005 BKN008
BECMG 2012/2014 8000 SCT018
BECMG 2016/2018 3500 BR BKN015
BECMG 2023/2101 0900 FG OVC004
TEMPO 2103/2106 0400 FG VV001
No reported NOTAMs for that airfield.



MET'MAP, your aeronautical weather chart ! - Copyright ORBIFLY December 2007 - Disclaimer

ORBIFLY MET'MAP TEAM :

Programming & Development : Alexandra Zaïnal
Concept & Development : Baudouin d'Aumeries
Co-Development & Prog : Marc-Olivier Méhu
Technical & hardware support : Manuel Goepfert

Contact : metmap@orbifly.com




SOURCES & CREDITS :

   NOAA